KROA/ROA METAR and TAF weather

Enter ICAO airport designator
Station Type Date Time Source
KROA METAR 2019/02/16 02:54 UTC NOAA

KROA 160254Z 29014KT 10SM SCT050 12/03 A2982 RMK AO2 SLP094 T01220028 51015


Station Type Date Time Source
KROA Decoded METAR 2019/02/16 02:54 UTC NOAA

ROANOKE REGIONAL AIRPORT, VA, United States (KROA) 37-19N 079-58W 362M
Feb 15, 2019 - 09:54 PM EST / 2019.02.16 0254 UTC
Wind: from the WNW (290 degrees) at 16 MPH (14 KT):0
Visibility: 10 mile(s):0
Sky conditions: partly cloudy
Temperature: 54.0 F (12.2 C)
Dew Point: 37.0 F (2.8 C)
Relative Humidity: 52%
Pressure (altimeter): 29.82 in. Hg (1009 hPa)
Pressure tendency: 0.04 inches (1.5 hPa) higher than three hours ago
ob: KROA 160254Z 29014KT 10SM SCT050 12/03 A2982 RMK AO2 SLP094 T01220028 51015
cycle: 3

Station Type Date Time Source
KROA TAF 2019/02/16 03:42 UTC NOAA

TAF
AMD KROA 160240Z 1603/1624 31008G16KT P6SM VCSH OVC050
FM160400 32008G16KT 6SM -SHRA OVC035
TEMPO 1608/1612 4SM -RASN OVC020
FM161200 35008KT 5SM -RASN OVC015
FM161500 01007KT P6SM OVC020


Example: see airport list